Time;durP1;ratioP1;P1;durP2;ratioP2;P2;SDS_P1;SDS_P2;PMS_P1;PMS_P2;Temp;Humidity;BMP_temperature;BMP_pressure;BME280_temperature;BME280_humidity;BME280_pressure;Samples;Min_cycle;Max_cycle;Signal;HPM_P1;HPM_P2
2021/03/19 00:00:42;;;;;;;70.70;13.50;;;2.90;1.00;;;;;;5135491;27;20207;-67
2021/03/19 00:03:08;;;;;;;68.28;14.32;;;2.90;1.00;;;;;;5135057;27;20678;-67
2021/03/19 00:05:35;;;;;;;69.07;14.80;;;2.90;1.00;;;;;;5135808;27;20199;-68
2021/03/19 00:08:01;;;;;;;69.30;15.68;;;2.90;1.00;;;;;;5135447;27;20233;-67
2021/03/19 00:10:30;;;;;;;69.25;15.50;;;2.90;1.00;;;;;;5134990;27;20313;-67
2021/03/19 00:12:58;;;;;;;67.07;13.98;;;2.90;1.00;;;;;;5134932;27;20234;-67
2021/03/19 00:15:28;;;;;;;71.68;14.10;;;2.90;1.00;;;;;;5135129;27;20251;-67
2021/03/19 00:17:55;;;;;;;69.07;13.45;;;2.90;1.00;;;;;;5135071;27;20671;-67
2021/03/19 00:20:23;;;;;;;66.22;12.68;;;2.90;1.00;;;;;;5135031;27;20222;-67
2021/03/19 00:22:50;;;;;;;66.95;11.70;;;2.80;1.00;;;;;;5134723;27;20205;-67
2021/03/19 00:25:16;;;;;;;69.90;12.20;;;2.80;1.00;;;;;;5135033;27;20293;-67
2021/03/19 00:27:43;;;;;;;71.20;12.43;;;2.70;1.00;;;;;;5134894;27;20233;-67
2021/03/19 00:30:11;;;;;;;64.00;11.18;;;2.70;1.00;;;;;;5134661;27;20286;-65
2021/03/19 00:32:40;;;;;;;65.18;11.63;;;2.60;1.00;;;;;;5134249;27;20669;-65
2021/03/19 00:35:07;;;;;;;66.95;12.15;;;2.60;1.00;;;;;;5134536;27;20243;-65
2021/03/19 00:37:34;;;;;;;68.80;13.15;;;2.50;1.00;;;;;;5134518;27;20330;-65
2021/03/19 00:40:00;;;;;;;66.95;13.15;;;2.50;1.00;;;;;;5134784;27;20345;-65
2021/03/19 00:42:27;;;;;;;64.47;11.60;;;2.50;1.00;;;;;;5134632;27;20206;-66
2021/03/19 00:44:53;;;;;;;67.05;13.18;;;2.50;1.00;;;;;;5134598;27;20264;-66
2021/03/19 00:47:20;;;;;;;68.60;12.70;;;2.40;1.00;;;;;;5134251;27;20309;-66
2021/03/19 00:49:47;;;;;;;66.22;12.75;;;2.40;1.00;;;;;;5134298;27;20257;-66
2021/03/19 00:52:13;;;;;;;66.53;13.45;;;2.40;1.00;;;;;;5133929;27;20299;-66
2021/03/19 00:54:40;;;;;;;69.70;14.30;;;2.40;1.00;;;;;;5134231;27;20289;-66
2021/03/19 00:57:06;;;;;;;69.95;13.80;;;2.40;1.00;;;;;;5134577;27;20254;-66
2021/03/19 00:59:32;;;;;;;71.47;14.30;;;2.40;1.00;;;;;;5134362;27;20293;-66
2021/03/19 01:01:59;;;;;;;69.18;14.73;;;2.30;1.00;;;;;;5134034;27;20738;-66
2021/03/19 01:04:25;;;;;;;69.65;14.00;;;2.30;1.00;;;;;;5134011;27;20260;-66
2021/03/19 01:06:52;;;;;;;69.78;14.30;;;2.30;1.00;;;;;;5133838;27;20223;-66
2021/03/19 01:09:19;;;;;;;68.82;13.82;;;2.30;1.00;;;;;;5134529;27;20231;-66
2021/03/19 01:11:45;;;;;;;69.35;15.60;;;2.30;1.00;;;;;;5133937;27;20294;-66
2021/03/19 01:14:13;;;;;;;70.22;14.50;;;2.20;1.00;;;;;;5133818;27;20199;-66
2021/03/19 01:16:39;;;;;;;68.50;13.48;;;2.20;1.00;;;;;;5133708;27;20350;-66
2021/03/19 01:19:06;;;;;;;68.72;15.57;;;2.20;1.00;;;;;;5133612;27;20318;-66
2021/03/19 01:21:32;;;;;;;69.40;14.05;;;2.20;1.00;;;;;;5133833;27;20221;-66
2021/03/19 01:23:59;;;;;;;67.90;13.55;;;2.20;1.00;;;;;;5133683;27;20259;-65
2021/03/19 01:26:25;;;;;;;70.80;13.93;;;2.20;1.00;;;;;;5133668;27;20347;-66
2021/03/19 01:28:52;;;;;;;69.25;15.18;;;2.20;1.00;;;;;;5133457;27;20229;-66
2021/03/19 01:31:18;;;;;;;68.22;14.02;;;2.20;1.00;;;;;;5133584;27;20302;-66
2021/03/19 01:33:45;;;;;;;74.55;16.80;;;2.20;1.00;;;;;;5133106;27;20199;-66
2021/03/19 01:36:11;;;;;;;69.68;15.10;;;2.20;1.00;;;;;;5133475;27;20640;-66
2021/03/19 01:38:39;;;;;;;71.20;16.08;;;2.10;1.00;;;;;;5133332;27;20219;-66
2021/03/19 01:41:08;;;;;;;76.13;16.10;;;2.10;1.00;;;;;;5133397;27;20294;-66
2021/03/19 01:43:36;;;;;;;71.63;15.93;;;2.10;1.00;;;;;;5132945;27;20214;-66
2021/03/19 01:46:39;;;;;;;72.60;16.40;;;2.10;1.00;;;;;;5132798;27;20207;-65
2021/03/19 01:49:43;;;;;;;71.50;17.10;;;2.10;1.00;;;;;;5133213;27;20219;-66
2021/03/19 01:56:19;;;;;;;71.57;16.80;;;2.00;1.00;;;;;;5069859;27;20445;-66
2021/03/19 01:59:23;;;;;;;75.53;18.17;;;2.10;1.00;;;;;;5132858;27;20219;-66
2021/03/19 02:02:26;;;;;;;77.43;17.48;;;2.00;1.00;;;;;;5133083;27;20210;-66
2021/03/19 02:05:29;;;;;;;75.70;16.42;;;2.10;1.00;;;;;;5132761;27;20214;-66
2021/03/19 02:08:33;;;;;;;72.05;15.43;;;2.10;1.00;;;;;;5133051;27;20278;-66
2021/03/19 02:11:36;;;;;;;73.03;16.05;;;2.10;1.00;;;;;;5132737;27;20701;-66
2021/03/19 02:14:53;;;;;;;80.65;17.80;;;2.00;1.00;;;;;;5132615;27;20249;-66
2021/03/19 02:17:56;;;;;;;80.85;19.33;;;2.00;1.00;;;;;;5039467;28;20316;-66
2021/03/19 02:21:00;;;;;;;72.28;16.98;;;1.90;1.00;;;;;;5069144;28;20206;-66
2021/03/19 02:24:03;;;;;;;75.03;18.63;;;1.90;1.00;;;;;;5132551;27;20238;-66
2021/03/19 02:27:06;;;;;;;74.78;18.00;;;1.80;1.00;;;;;;5132705;27;20237;-66
2021/03/19 02:30:10;;;;;;;74.55;18.75;;;1.80;1.00;;;;;;5132489;27;20222;-66
2021/03/19 02:32:37;;;;;;;75.90;19.05;;;1.90;1.00;;;;;;5132416;27;20251;-66
2021/03/19 02:35:08;;;;;;;74.32;17.98;;;1.90;1.00;;;;;;5132493;27;20750;-66
2021/03/19 02:37:36;;;;;;;76.40;18.58;;;1.90;1.00;;;;;;5132688;27;20519;-66
2021/03/19 02:40:04;;;;;;;79.95;20.17;;;1.90;1.00;;;;;;5132487;27;20799;-66
2021/03/19 02:42:32;;;;;;;77.00;19.17;;;2.00;1.00;;;;;;5132216;27;20294;-66
2021/03/19 02:44:59;;;;;;;86.57;21.95;;;1.90;1.00;;;;;;5132613;27;20290;-66
2021/03/19 02:47:27;;;;;;;78.95;22.35;;;1.90;1.00;;;;;;5132542;27;20706;-66
2021/03/19 02:49:54;;;;;;;79.32;21.48;;;1.90;1.00;;;;;;5132535;27;20267;-66
2021/03/19 02:52:24;;;;;;;80.00;23.30;;;1.90;1.00;;;;;;5132268;27;20206;-66
2021/03/19 02:54:50;;;;;;;78.05;21.60;;;1.90;1.00;;;;;;5132268;27;20234;-66
2021/03/19 02:57:17;;;;;;;84.68;24.27;;;1.80;1.00;;;;;;5135952;27;20234;-66
2021/03/19 02:59:43;;;;;;;78.22;21.95;;;1.80;1.00;;;;;;5136623;27;20225;-67
2021/03/19 03:02:09;;;;;;;80.30;22.15;;;1.80;1.00;;;;;;5136454;27;20205;-66
2021/03/19 03:04:36;;;;;;;82.03;24.50;;;1.80;1.00;;;;;;5136570;27;20251;-66
2021/03/19 03:07:03;;;;;;;83.55;24.08;;;1.80;1.00;;;;;;5136292;27;20330;-66
2021/03/19 03:09:32;;;;;;;86.50;23.95;;;1.80;1.00;;;;;;5136197;27;20228;-67
2021/03/19 03:11:59;;;;;;;79.63;23.05;;;1.70;1.00;;;;;;5136398;27;20573;-67
2021/03/19 03:14:27;;;;;;;85.72;22.83;;;1.70;1.00;;;;;;5136264;27;20286;-67
2021/03/19 03:16:56;;;;;;;80.47;22.92;;;1.70;1.00;;;;;;5136403;27;20263;-67
2021/03/19 03:19:24;;;;;;;83.47;22.42;;;1.70;1.00;;;;;;5135850;27;20202;-67
2021/03/19 03:21:51;;;;;;;81.53;24.33;;;1.60;1.00;;;;;;5135999;27;20587;-67
2021/03/19 03:24:18;;;;;;;80.65;22.20;;;1.60;1.00;;;;;;5135886;27;20298;-67
2021/03/19 03:26:45;;;;;;;83.95;25.45;;;1.60;1.00;;;;;;5136114;27;20254;-67
2021/03/19 03:29:13;;;;;;;79.80;23.77;;;1.60;1.00;;;;;;5135990;27;20215;-67
2021/03/19 03:31:40;;;;;;;80.68;24.13;;;1.60;1.00;;;;;;5135906;27;20203;-67
2021/03/19 03:34:08;;;;;;;82.57;24.67;;;1.60;1.00;;;;;;5135720;27;20203;-67
2021/03/19 03:36:35;;;;;;;80.57;22.92;;;1.60;1.00;;;;;;5135719;27;20203;-67
2021/03/19 03:39:04;;;;;;;83.28;25.30;;;1.60;1.00;;;;;;5135588;27;20671;-67
2021/03/19 03:41:31;;;;;;;84.68;25.45;;;1.60;1.00;;;;;;5135952;27;20563;-67
2021/03/19 03:43:57;;;;;;;83.43;24.90;;;1.60;1.00;;;;;;5135453;27;20207;-67
2021/03/19 03:46:26;;;;;;;83.88;24.88;;;1.60;1.00;;;;;;5135714;27;20203;-65
2021/03/19 03:48:54;;;;;;;83.40;24.45;;;1.60;1.00;;;;;;5135490;27;20679;-66
2021/03/19 03:51:23;;;;;;;84.90;25.80;;;1.60;1.00;;;;;;5135361;27;20260;-66
2021/03/19 03:53:49;;;;;;;87.97;26.65;;;1.60;1.00;;;;;;5135280;27;20667;-66
2021/03/19 03:56:16;;;;;;;90.13;28.13;;;1.60;1.00;;;;;;5135533;27;20290;-66
2021/03/19 03:58:43;;;;;;;87.93;27.00;;;1.60;1.00;;;;;;5135429;27;20230;-66
2021/03/19 04:01:11;;;;;;;89.93;29.17;;;1.70;1.00;;;;;;5135383;27;20283;-66
2021/03/19 04:03:38;;;;;;;85.90;26.00;;;1.60;1.00;;;;;;5135040;27;20298;-66
2021/03/19 04:06:06;;;;;;;85.78;26.30;;;1.70;1.00;;;;;;5135203;27;20294;-66
2021/03/19 04:08:33;;;;;;;86.68;27.00;;;1.70;1.00;;;;;;5134519;27;20345;-66
2021/03/19 04:11:01;;;;;;;86.82;26.05;;;1.70;1.00;;;;;;5135162;27;20252;-66
2021/03/19 04:13:30;;;;;;;88.97;28.58;;;1.70;1.00;;;;;;5135087;27;20268;-66
2021/03/19 04:15:58;;;;;;;87.43;27.90;;;1.70;1.00;;;;;;5135133;27;20747;-66
2021/03/19 04:18:25;;;;;;;90.68;27.35;;;1.70;1.00;;;;;;5135124;27;20325;-66
2021/03/19 04:20:54;;;;;;;85.00;26.48;;;1.70;1.00;;;;;;5135176;27;20209;-66
2021/03/19 04:23:20;;;;;;;87.03;25.77;;;1.70;1.00;;;;;;5134662;27;20293;-66
2021/03/19 04:25:47;;;;;;;86.22;27.00;;;1.70;1.00;;;;;;5134965;27;20302;-66
2021/03/19 04:28:17;;;;;;;86.35;27.25;;;1.70;1.00;;;;;;5134702;27;20230;-66
2021/03/19 04:30:45;;;;;;;87.40;26.50;;;1.80;1.00;;;;;;5134740;27;20226;-66
2021/03/19 04:33:16;;;;;;;87.95;28.17;;;1.80;1.00;;;;;;5134505;27;20258;-66
2021/03/19 04:35:42;;;;;;;88.00;28.02;;;1.80;1.00;;;;;;5134587;27;20298;-66
2021/03/19 04:38:12;;;;;;;90.22;27.95;;;1.80;1.00;;;;;;5134714;27;20266;-66
2021/03/19 04:40:41;;;;;;;89.50;28.13;;;1.80;1.00;;;;;;5134459;27;20244;-66
2021/03/19 04:43:08;;;;;;;88.55;29.00;;;1.80;1.00;;;;;;5134427;27;20582;-66
2021/03/19 04:45:37;;;;;;;89.30;28.38;;;1.80;1.00;;;;;;5134319;27;20231;-67
2021/03/19 04:48:04;;;;;;;90.38;29.38;;;1.90;1.00;;;;;;5134274;27;20222;-66
2021/03/19 04:50:31;;;;;;;106.40;33.28;;;1.90;1.00;;;;;;5134251;27;20245;-66
2021/03/19 04:52:58;;;;;;;91.55;31.13;;;1.90;1.00;;;;;;5134347;27;20238;-66
2021/03/19 04:55:24;;;;;;;85.72;27.80;;;1.90;1.00;;;;;;5134145;27;20755;-66
2021/03/19 04:57:51;;;;;;;91.90;30.15;;;1.90;1.00;;;;;;5134040;27;20347;-66
2021/03/19 05:00:21;;;;;;;90.82;27.80;;;1.90;1.00;;;;;;5134026;27;20726;-67
2021/03/19 05:02:49;;;;;;;91.95;28.85;;;1.90;1.00;;;;;;5134002;27;20235;-66
2021/03/19 05:05:19;;;;;;;87.82;26.80;;;1.80;1.00;;;;;;5133988;27;20234;-66
2021/03/19 05:07:47;;;;;;;89.25;26.35;;;1.80;1.00;;;;;;5133975;27;20244;-66
2021/03/19 05:10:15;;;;;;;90.30;29.85;;;1.80;1.00;;;;;;5133798;27;20317;-66
2021/03/19 05:12:41;;;;;;;89.80;28.40;;;1.80;1.00;;;;;;5133705;27;20574;-66
2021/03/19 05:15:09;;;;;;;91.30;28.95;;;1.90;1.00;;;;;;5134147;27;20337;-66
2021/03/19 05:17:36;;;;;;;90.90;28.50;;;1.80;1.00;;;;;;5133995;27;20287;-66
2021/03/19 05:20:05;;;;;;;88.05;28.70;;;1.80;1.00;;;;;;5133928;27;20196;-66
2021/03/19 05:22:32;;;;;;;86.47;27.60;;;1.80;1.00;;;;;;5133796;27;20289;-67
2021/03/19 05:24:59;;;;;;;86.32;26.40;;;1.80;1.00;;;;;;5133560;27;20674;-67
2021/03/19 05:27:26;;;;;;;87.28;25.65;;;1.80;1.00;;;;;;5134047;27;20219;-67
2021/03/19 05:29:54;;;;;;;89.38;29.00;;;1.80;1.00;;;;;;5133759;27;20643;-66
2021/03/19 05:32:20;;;;;;;102.50;31.88;;;1.80;1.00;;;;;;5133299;27;20219;-66
2021/03/19 05:34:47;;;;;;;91.72;29.73;;;1.80;1.00;;;;;;5133295;27;20210;-66
2021/03/19 05:37:13;;;;;;;91.95;30.48;;;1.80;1.00;;;;;;5133529;27;20751;-66
2021/03/19 05:39:40;;;;;;;92.93;30.17;;;1.70;1.00;;;;;;5133237;27;20195;-66
2021/03/19 05:42:15;;;;;;;88.85;29.15;;;1.80;1.00;;;;;;5133529;27;20285;-66
2021/03/19 05:44:45;;;;;;;89.78;27.65;;;1.80;1.00;;;;;;5133409;27;20203;-66
2021/03/19 05:47:13;;;;;;;84.22;26.20;;;1.80;1.00;;;;;;5133124;27;20785;-66
2021/03/19 05:49:40;;;;;;;89.43;28.73;;;1.90;1.00;;;;;;5133152;27;20309;-66
2021/03/19 05:52:22;;;;;;;87.40;27.58;;;1.90;1.00;;;;;;5132891;27;20235;-66
2021/03/19 05:54:52;;;;;;;87.65;28.08;;;1.90;1.00;;;;;;5133581;27;20210;-66
2021/03/19 05:57:25;;;;;;;92.72;30.25;;;2.00;1.00;;;;;;5133243;27;20227;-66
2021/03/19 05:59:53;;;;;;;88.78;28.00;;;2.00;1.00;;;;;;5133153;27;20602;-66
2021/03/19 06:02:23;;;;;;;87.78;28.65;;;2.10;1.00;;;;;;5132898;27;20209;-66
2021/03/19 06:05:10;;;;;;;92.93;27.55;;;2.10;1.00;;;;;;5132727;27;20220;-66
2021/03/19 06:07:39;;;;;;;85.05;27.30;;;2.20;1.00;;;;;;5133042;27;20226;-66
2021/03/19 06:10:33;;;;;;;89.30;27.30;;;2.30;1.00;;;;;;5132805;27;20265;-66
2021/03/19 06:13:20;;;;;;;97.00;30.15;;;2.40;1.00;;;;;;5096303;27;20271;-66
2021/03/19 06:15:48;;;;;;;92.38;28.25;;;2.40;1.00;;;;;;5132965;27;20286;-66
2021/03/19 06:18:23;;;;;;;91.43;29.10;;;2.50;1.00;;;;;;5132614;27;20691;-66
2021/03/19 06:20:56;;;;;;;86.00;28.20;;;2.50;1.00;;;;;;5132862;27;20202;-66
2021/03/19 06:23:23;;;;;;;94.47;31.23;;;2.50;1.00;;;;;;5132458;27;20207;-66
2021/03/19 06:26:06;;;;;;;86.88;28.70;;;2.60;1.00;;;;;;5132636;27;20210;-66
2021/03/19 06:28:36;;;;;;;93.00;30.58;;;2.60;1.00;;;;;;5132611;27;20226;-66
2021/03/19 06:31:21;;;;;;;91.45;29.40;;;2.60;1.00;;;;;;5132175;27;20226;-66
2021/03/19 06:34:01;;;;;;;88.43;28.70;;;2.50;1.00;;;;;;5132311;27;20203;-67
2021/03/19 06:36:28;;;;;;;91.57;29.05;;;2.60;1.00;;;;;;5132624;27;20246;-67
2021/03/19 06:39:06;;;;;;;109.35;30.83;;;2.60;1.00;;;;;;5132646;27;20674;-67
2021/03/19 06:41:35;;;;;;;85.85;28.77;;;2.60;1.00;;;;;;5132950;27;20190;-67
2021/03/19 06:44:20;;;;;;;89.68;30.35;;;2.60;1.00;;;;;;5132428;27;20761;-67
2021/03/19 06:46:50;;;;;;;94.07;28.85;;;2.70;1.00;;;;;;5132434;27;20227;-67
2021/03/19 06:49:17;;;;;;;87.88;26.75;;;2.70;1.00;;;;;;5132256;27;20371;-67
2021/03/19 06:51:46;;;;;;;90.35;27.98;;;2.80;1.00;;;;;;5132705;27;20234;-67
2021/03/19 06:54:14;;;;;;;90.53;28.23;;;2.90;1.00;;;;;;5132187;27;20290;-67
2021/03/19 06:56:59;;;;;;;87.38;27.73;;;2.90;1.00;;;;;;5132206;27;20693;-67
2021/03/19 06:59:28;;;;;;;87.75;26.95;;;3.00;1.00;;;;;;5132513;27;20213;-67
2021/03/19 07:01:55;;;;;;;85.32;26.15;;;3.10;1.00;;;;;;5132078;27;20238;-67
2021/03/19 07:04:51;;;;;;;88.93;26.63;;;3.20;1.00;;;;;;5132264;27;20284;-67
2021/03/19 07:07:42;;;;;;;88.28;27.80;;;3.20;1.00;;;;;;5132008;27;20230;-67
2021/03/19 07:10:38;;;;;;;81.60;24.42;;;3.30;1.00;;;;;;5131932;27;20310;-67
2021/03/19 07:13:28;;;;;;;88.05;26.02;;;3.30;1.00;;;;;;5132083;27;20202;-65
2021/03/19 07:16:01;;;;;;;84.40;24.75;;;3.40;1.00;;;;;;5131966;27;20203;-67
2021/03/19 07:18:46;;;;;;;89.30;25.85;;;3.40;1.00;;;;;;5132180;27;20722;-67
2021/03/19 07:21:35;;;;;;;83.07;25.20;;;3.30;1.00;;;;;;5132159;27;20199;-67
2021/03/19 07:24:12;;;;;;;82.53;23.85;;;3.30;1.00;;;;;;5118687;27;20218;-67
2021/03/19 07:26:45;;;;;;;81.30;24.02;;;3.40;1.00;;;;;;5132078;27;20210;-67
2021/03/19 07:29:40;;;;;;;81.10;23.38;;;3.30;1.00;;;;;;5132063;27;20207;-67
2021/03/19 07:32:32;;;;;;;82.45;22.95;;;3.30;1.00;;;;;;5131782;27;20210;-65
2021/03/19 07:35:13;;;;;;;83.43;24.00;;;3.40;1.00;;;;;;5131937;27;20598;-65
2021/03/19 07:38:13;;;;;;;81.50;23.27;;;3.40;1.00;;;;;;5131892;27;20732;-66
2021/03/19 07:40:52;;;;;;;80.45;22.00;;;3.40;1.00;;;;;;5132502;27;20203;-66
2021/03/19 07:43:43;;;;;;;77.60;20.38;;;3.50;1.00;;;;;;5133957;27;20209;-66
2021/03/19 07:46:26;;;;;;;80.85;20.55;;;3.50;1.00;;;;;;5104040;27;20297;-66
2021/03/19 07:49:19;;;;;;;81.50;24.27;;;3.50;1.00;;;;;;5135543;27;20553;-66
2021/03/19 07:51:56;;;;;;;80.97;22.65;;;3.50;1.00;;;;;;5135466;27;20273;-66
2021/03/19 07:54:32;;;;;;;87.35;26.52;;;3.60;1.00;;;;;;5133750;27;20220;-66
2021/03/19 07:57:03;;;;;;;84.18;23.10;;;3.70;1.00;;;;;;5133538;27;20653;-66
2021/03/19 07:59:48;;;;;;;81.60;23.98;;;3.80;1.00;;;;;;5133572;27;20282;-66
2021/03/19 08:02:47;;;;;;;87.75;25.95;;;3.80;1.00;;;;;;5133602;27;20298;-66
2021/03/19 08:05:32;;;;;;;88.15;25.10;;;3.70;1.00;;;;;;5133520;27;20654;-66
2021/03/19 08:08:06;;;;;;;87.15;24.65;;;3.70;1.00;;;;;;5134117;27;20226;-66
2021/03/19 08:10:40;;;;;;;84.05;25.52;;;3.60;1.00;;;;;;5135214;27;20248;-66
2021/03/19 08:13:25;;;;;;;81.65;22.88;;;3.60;1.00;;;;;;5135051;27;20295;-66
2021/03/19 08:15:54;;;;;;;79.72;22.58;;;3.70;1.00;;;;;;5134858;27;20207;-65
2021/03/19 08:18:26;;;;;;;78.20;20.73;;;3.70;1.00;;;;;;5135205;27;20712;-66
2021/03/19 08:21:13;;;;;;;78.88;22.30;;;3.60;1.00;;;;;;5135278;27;20258;-66
2021/03/19 08:23:59;;;;;;;79.38;21.00;;;3.60;1.00;;;;;;5135073;27;20210;-65
2021/03/19 08:26:29;;;;;;;79.40;21.70;;;3.70;1.00;;;;;;5134324;27;20633;-65
2021/03/19 08:29:02;;;;;;;80.95;23.08;;;3.90;1.00;;;;;;5134868;27;20293;-65
2021/03/19 08:31:37;;;;;;;81.30;23.27;;;4.00;1.00;;;;;;5135088;27;20697;-65
2021/03/19 08:34:16;;;;;;;85.38;23.15;;;4.20;1.00;;;;;;5133493;27;20203;-65
2021/03/19 08:36:45;;;;;;;78.80;21.00;;;4.30;1.00;;;;;;5134371;27;20298;-65
2021/03/19 08:39:22;;;;;;;79.15;21.00;;;4.40;1.00;;;;;;5134556;27;20693;-65
2021/03/19 08:41:50;;;;;;;78.85;19.80;;;4.30;1.00;;;;;;5134927;27;20681;-65
2021/03/19 08:44:21;;;;;;;75.85;19.63;;;4.30;1.00;;;;;;5134611;27;20293;-65
2021/03/19 08:46:52;;;;;;;78.05;19.52;;;4.20;1.00;;;;;;5134575;27;20654;-65
2021/03/19 08:49:39;;;;;;;81.35;21.35;;;4.20;1.00;;;;;;5134306;27;20587;-65
2021/03/19 08:52:30;;;;;;;78.40;20.15;;;4.20;1.00;;;;;;5134516;27;20230;-65
2021/03/19 08:55:21;;;;;;;74.20;18.02;;;4.20;1.00;;;;;;5133215;27;20203;-65
2021/03/19 08:57:49;;;;;;;78.20;21.15;;;4.20;1.00;;;;;;5134158;27;20241;-65
2021/03/19 09:00:49;;;;;;;78.00;20.13;;;4.10;1.00;;;;;;5134535;27;20226;-65
2021/03/19 09:03:50;;;;;;;75.30;18.52;;;4.00;1.00;;;;;;5134091;27;20211;-66
2021/03/19 09:06:19;;;;;;;79.45;20.42;;;4.00;1.00;;;;;;5134382;27;20580;-65
2021/03/19 09:09:02;;;;;;;77.07;19.80;;;4.10;1.00;;;;;;5134141;27;20227;-65
2021/03/19 09:12:04;;;;;;;80.05;20.58;;;4.30;1.00;;;;;;5134152;27;20684;-65
2021/03/19 09:14:49;;;;;;;77.68;17.60;;;4.50;1.00;;;;;;5134234;27;20214;-66
2021/03/19 09:17:49;;;;;;;71.90;17.40;;;4.80;1.00;;;;;;5133975;27;20223;-66
2021/03/19 09:20:26;;;;;;;78.07;19.05;;;5.00;1.00;;;;;;5133700;27;20290;-66
2021/03/19 09:23:19;;;;;;;78.18;17.67;;;5.00;1.00;;;;;;5134035;27;20305;-65
2021/03/19 09:25:51;;;;;;;73.63;17.30;;;5.10;1.00;;;;;;5133768;27;20360;-65
2021/03/19 09:28:38;;;;;;;74.10;17.38;;;5.20;1.00;;;;;;5134010;27;20223;-65
2021/03/19 09:31:28;;;;;;;74.20;18.05;;;5.30;1.00;;;;;;5133716;27;20226;-65
2021/03/19 09:34:04;;;;;;;74.03;15.07;;;5.50;1.00;;;;;;5133276;27;20207;-65
2021/03/19 09:36:57;;;;;;;70.88;14.75;;;5.70;1.00;;;;;;5133383;27;20215;-65
2021/03/19 09:39:54;;;;;;;70.75;13.80;;;5.90;1.00;;;;;;5133358;27;20298;-65
2021/03/19 09:42:48;;;;;;;68.82;12.80;;;6.00;1.00;;;;;;5133566;27;20574;-65
2021/03/19 09:45:30;;;;;;;69.70;13.70;;;6.10;1.00;;;;;;5133360;27;20290;-65
2021/03/19 09:48:26;;;;;;;66.07;10.98;;;6.10;1.00;;;;;;5133509;27;20254;-66
2021/03/19 09:51:02;;;;;;;70.68;14.15;;;6.10;1.00;;;;;;5133233;27;20722;-65
2021/03/19 09:53:35;;;;;;;66.38;11.55;;;6.30;1.00;;;;;;5133347;27;20757;-65
2021/03/19 09:56:04;;;;;;;69.57;14.35;;;6.40;1.00;;;;;;5133113;27;20199;-65
2021/03/19 09:58:39;;;;;;;65.68;12.05;;;6.40;1.00;;;;;;5133291;27;20305;-65
2021/03/19 10:01:13;;;;;;;66.45;11.52;;;6.30;1.00;;;;;;5133307;27;20254;-65
2021/03/19 10:03:45;;;;;;;68.10;13.38;;;6.30;1.00;;;;;;5133056;27;20210;-65
2021/03/19 10:06:27;;;;;;;66.70;12.40;;;6.30;1.00;;;;;;5132237;27;20248;-65
2021/03/19 10:09:08;;;;;;;66.82;12.60;;;6.40;1.00;;;;;;5133123;27;20204;-65
2021/03/19 10:11:36;;;;;;;66.53;11.40;;;6.60;1.00;;;;;;5133113;27;20255;-66
2021/03/19 10:14:13;;;;;;;67.57;11.32;;;6.90;1.00;;;;;;5132882;27;20296;-66
2021/03/19 10:16:40;;;;;;;66.03;11.57;;;7.00;1.00;;;;;;5132630;27;20202;-66
2021/03/19 10:19:12;;;;;;;67.22;11.75;;;7.20;1.00;;;;;;5133186;27;20230;-65
2021/03/19 10:21:43;;;;;;;65.93;11.95;;;7.10;1.00;;;;;;5132737;27;20214;-66
2021/03/19 10:24:09;;;;;;;67.25;12.18;;;7.10;1.00;;;;;;5132812;27;20298;-65
2021/03/19 10:26:40;;;;;;;65.30;10.75;;;7.00;1.00;;;;;;5133089;27;20236;-65
2021/03/19 10:29:13;;;;;;;65.65;10.27;;;6.80;1.00;;;;;;5132593;27;20630;-65
2021/03/19 10:31:44;;;;;;;64.40;10.57;;;6.70;1.00;;;;;;5132618;27;20312;-65
2021/03/19 10:34:20;;;;;;;63.55;9.75;;;6.60;1.00;;;;;;5132398;27;20256;-65
2021/03/19 10:36:53;;;;;;;62.67;9.05;;;6.60;1.00;;;;;;5132517;27;20254;-65
2021/03/19 10:39:29;;;;;;;63.97;9.68;;;6.50;1.00;;;;;;5132640;27;20681;-65
2021/03/19 10:42:15;;;;;;;62.33;8.30;;;6.50;1.00;;;;;;5132315;27;20204;-66
2021/03/19 10:44:51;;;;;;;60.67;7.15;;;6.50;1.00;;;;;;5132757;27;20208;-66
2021/03/19 10:47:21;;;;;;;59.85;6.60;;;6.40;1.00;;;;;;5132523;27;20261;-65
2021/03/19 10:49:53;;;;;;;62.60;7.90;;;6.30;1.00;;;;;;5132489;27;20226;-65
2021/03/19 10:52:29;;;;;;;61.33;7.68;;;6.30;1.00;;;;;;5132297;27;20215;-66
2021/03/19 10:54:59;;;;;;;66.00;8.38;;;6.20;1.00;;;;;;5132584;27;20207;-65
2021/03/19 10:57:30;;;;;;;61.88;8.45;;;6.20;1.00;;;;;;5132364;27;20314;-66
2021/03/19 10:59:56;;;;;;;60.80;6.75;;;6.10;1.00;;;;;;5132479;28;20203;-66
2021/03/19 11:02:26;;;;;;;61.03;6.57;;;6.20;1.00;;;;;;5132225;27;20649;-66
2021/03/19 11:05:11;;;;;;;59.17;6.13;;;6.50;1.00;;;;;;5132112;27;20235;-66
2021/03/19 11:07:44;;;;;;;58.80;6.00;;;6.80;1.00;;;;;;5132292;27;20307;-66
2021/03/19 11:10:15;;;;;;;58.47;5.15;;;6.80;1.00;;;;;;5132526;27;20223;-66
2021/03/19 11:12:45;;;;;;;59.47;6.22;;;6.80;1.00;;;;;;5132216;27;20238;-66
2021/03/19 11:15:14;;;;;;;62.83;6.80;;;6.60;1.00;;;;;;5132145;27;20286;-66
2021/03/19 11:17:40;;;;;;;59.90;5.93;;;6.50;1.00;;;;;;5134904;27;20306;-66
2021/03/19 11:20:11;;;;;;;59.95;6.40;;;6.50;1.00;;;;;;5136388;27;20762;-66
2021/03/19 11:22:41;;;;;;;59.50;6.38;;;6.60;1.00;;;;;;5136316;27;20257;-66
2021/03/19 11:25:44;;;;;;;60.05;6.88;;;6.60;1.00;;;;;;5136361;27;20241;-66
2021/03/19 11:28:22;;;;;;;60.15;6.57;;;6.70;1.00;;;;;;5072480;28;20311;-66
2021/03/19 11:30:48;;;;;;;59.55;5.95;;;6.80;1.00;;;;;;5072385;28;20308;-66
2021/03/19 11:33:17;;;;;;;60.55;6.07;;;6.80;1.00;;;;;;5106931;27;20297;-65
2021/03/19 11:36:03;;;;;;;61.20;6.47;;;6.80;1.00;;;;;;5135861;27;20215;-66
2021/03/19 11:38:33;;;;;;;60.25;6.75;;;6.80;1.00;;;;;;5136084;27;20313;-66
2021/03/19 11:41:01;;;;;;;61.35;7.90;;;6.70;1.00;;;;;;5135872;27;20690;-66
2021/03/19 11:43:28;;;;;;;62.80;8.35;;;6.60;1.00;;;;;;5135662;27;20257;-65
2021/03/19 11:45:54;;;;;;;62.00;7.85;;;6.40;1.00;;;;;;5135788;27;20304;-65
2021/03/19 11:48:28;;;;;;;61.58;7.80;;;6.20;1.00;;;;;;5135509;27;20306;-65
2021/03/19 11:51:06;;;;;;;61.90;8.30;;;6.00;1.00;;;;;;5135816;27;20227;-65
2021/03/19 11:53:34;;;;;;;64.50;8.48;;;5.90;1.00;;;;;;5135771;27;20629;-66
2021/03/19 11:56:00;;;;;;;63.45;8.05;;;5.90;1.00;;;;;;5135626;27;20257;-66
2021/03/19 11:58:30;;;;;;;61.42;8.35;;;5.90;1.00;;;;;;5135492;27;20234;-66
2021/03/19 12:00:58;;;;;;;61.85;8.02;;;5.90;1.00;;;;;;5135330;27;20224;-66
2021/03/19 12:03:30;;;;;;;64.30;9.10;;;6.00;1.00;;;;;;5135558;27;20235;-65
2021/03/19 12:05:56;;;;;;;63.70;9.15;;;6.10;1.00;;;;;;5135325;27;20268;-66
2021/03/19 12:08:24;;;;;;;61.78;8.40;;;6.10;1.00;;;;;;5135262;27;20319;-67
2021/03/19 12:10:51;;;;;;;65.32;9.35;;;6.10;1.00;;;;;;5135224;27;20322;-67
2021/03/19 12:13:18;;;;;;;66.18;10.48;;;6.00;1.00;;;;;;5135132;27;20203;-67
2021/03/19 12:15:44;;;;;;;66.18;10.02;;;5.90;1.00;;;;;;5135082;27;20244;-67
2021/03/19 12:18:11;;;;;;;65.32;10.73;;;5.90;1.00;;;;;;5135101;27;20223;-67
2021/03/19 12:20:38;;;;;;;65.63;10.23;;;5.90;1.00;;;;;;5135250;27;20230;-67
2021/03/19 12:23:04;;;;;;;66.38;11.05;;;6.00;1.00;;;;;;5135005;27;20290;-67
2021/03/19 12:25:33;;;;;;;65.43;11.18;;;6.20;1.00;;;;;;5134863;27;20261;-67
2021/03/19 12:28:00;;;;;;;69.18;11.07;;;6.60;1.00;;;;;;5134005;27;20722;-66
2021/03/19 12:30:27;;;;;;;68.68;12.38;;;6.90;1.00;;;;;;5134885;27;20231;-66
2021/03/19 12:32:54;;;;;;;67.10;10.90;;;7.50;1.00;;;;;;5134998;27;20482;-66
2021/03/19 12:35:22;;;;;;;66.90;11.43;;;8.30;1.00;;;;;;5134527;27;20213;-66
2021/03/19 12:37:50;;;;;;;67.40;11.20;;;8.70;1.00;;;;;;5134891;27;20470;-66
2021/03/19 12:40:17;;;;;;;68.37;12.13;;;8.70;1.00;;;;;;5134992;27;20507;-66
2021/03/19 12:42:43;;;;;;;66.60;11.10;;;8.40;1.00;;;;;;5134569;27;20548;-66
2021/03/19 12:45:12;;;;;;;70.77;13.10;;;8.00;1.00;;;;;;5134774;27;20453;-66
2021/03/19 12:47:38;;;;;;;66.50;10.90;;;7.70;1.00;;;;;;5134463;27;20998;-66
2021/03/19 12:50:06;;;;;;;67.85;12.18;;;7.30;1.00;;;;;;5134469;27;20516;-66
2021/03/19 12:52:32;;;;;;;70.28;13.25;;;7.20;1.00;;;;;;5134902;27;20244;-66
2021/03/19 12:54:59;;;;;;;68.43;11.60;;;6.90;1.00;;;;;;5134280;27;20286;-66
2021/03/19 12:57:26;;;;;;;71.07;13.80;;;6.60;1.00;;;;;;5134559;27;20252;-66
2021/03/19 12:59:52;;;;;;;71.40;14.52;;;6.30;1.00;;;;;;5134492;27;20282;-65
2021/03/19 13:02:19;;;;;;;68.60;12.63;;;6.00;1.00;;;;;;5134382;27;20298;-66
2021/03/19 13:04:45;;;;;;;69.90;13.02;;;5.80;1.00;;;;;;5134679;27;20220;-66
2021/03/19 13:07:12;;;;;;;70.53;14.02;;;5.60;1.00;;;;;;5134158;27;20593;-66
2021/03/19 13:09:38;;;;;;;70.25;11.82;;;5.50;1.00;;;;;;5133943;27;20241;-66
2021/03/19 13:12:06;;;;;;;68.45;12.80;;;5.40;1.00;;;;;;5134086;27;20211;-66
2021/03/19 13:14:33;;;;;;;72.88;13.38;;;5.40;1.00;;;;;;5134166;27;20635;-66
2021/03/19 13:17:00;;;;;;;67.50;12.38;;;5.30;1.00;;;;;;5134093;27;20676;-66
2021/03/19 13:19:28;;;;;;;71.43;13.80;;;5.40;1.00;;;;;;5134055;27;20234;-66
2021/03/19 13:21:55;;;;;;;69.30;12.40;;;5.40;1.00;;;;;;5133809;27;20237;-65
2021/03/19 13:24:22;;;;;;;69.90;12.98;;;5.60;1.00;;;;;;5133521;27;20293;-66